FOOL

Libreville Leon M'ba International Airport

Libreville, Gabon
METAR FOOL 181430Z 26008KT 9999 FEW013 SCT040 28/22 Q1011 NOSIG
Observed Flight Rules
Aug-18 @ 14:30 UTC (22 minutes ago) Visual Flight Rules
Wind Visibility Clouds
260° at 8 knots 10,000+ meters
  • Few at 1,300' AGL
  • Scattered at 4,000' AGL
Temperatures Readings
Current 28°C / 82°F
Dewpoint 22°C / 72°F
Humidity 70%
Altimeter 29.85" Hg
Pressure 1011 hPa
Elevation 15
METAR FOOL 181430Z 26008KT 9999 FEW013 SCT040 28/22 Q1011 NOSIG
Observed Flight Rules
Aug-18 @ 14:30 UTC
(22 minutes ago)
VFR
Wind Visibility
260° at 8 knots 10,000+ meters
Clouds
  • Few at 1,300' AGL
  • Scattered at 4,000' AGL
Temperature Dewpoint
28°C / 82°F 22°C / 72°F
Humidity Altimeter Pressure
70% 29.85" Hg 1011 hPa